Time;durP1;ratioP1;P1;durP2;ratioP2;P2;SDS_P1;SDS_P2;PMS_P1;PMS_P2;Temp;Humidity;BMP_temperature;BMP_pressure;BME280_temperature;BME280_humidity;BME280_pressure;Samples;Min_cycle;Max_cycle;Signal;HPM_P1;HPM_P2
2023/08/29 00:01:28;;;;;;;10.75;4.80;;;;;;;15.20;100.00;100317.72;5018408;28;20115;-91
2023/08/29 00:03:56;;;;;;;10.88;5.25;;;;;;;15.22;100.00;100327.19;5017848;28;20371;-91
2023/08/29 00:06:21;;;;;;;14.50;5.20;;;;;;;15.25;100.00;100323.34;5027479;28;20071;-90
2023/08/29 00:08:47;;;;;;;14.50;4.22;;;;;;;15.25;100.00;100318.00;5053637;28;20129;-91
2023/08/29 00:11:13;;;;;;;9.93;4.85;;;;;;;15.24;100.00;100317.16;5017594;28;20033;-91
2023/08/29 00:13:39;;;;;;;10.57;4.85;;;;;;;15.27;100.00;100321.34;5017115;28;20045;-91
2023/08/29 00:16:05;;;;;;;15.48;4.63;;;;;;;15.28;100.00;100314.16;5018074;28;20445;-90
2023/08/29 00:18:31;;;;;;;11.38;4.60;;;;;;;15.28;100.00;100306.16;5016195;28;20038;-90
2023/08/29 00:20:56;;;;;;;11.80;4.97;;;;;;;15.28;100.00;100312.31;5012513;28;20090;-91
2023/08/29 00:23:22;;;;;;;9.88;4.30;;;;;;;15.29;100.00;100313.97;5019029;28;20470;-91
2023/08/29 00:25:50;;;;;;;12.68;4.45;;;;;;;15.27;100.00;100304.53;5015672;28;20077;-91
2023/08/29 00:28:16;;;;;;;8.52;3.97;;;;;;;15.22;100.00;100302.41;4997605;28;20069;-91
2023/08/29 00:30:44;;;;;;;9.90;4.45;;;;;;;15.22;100.00;100297.06;5031489;28;20030;-91
2023/08/29 00:33:11;;;;;;;10.77;4.88;;;;;;;15.22;100.00;100300.56;4998019;28;20021;-91
2023/08/29 00:35:38;;;;;;;11.32;4.57;;;;;;;15.23;100.00;100293.38;5008564;28;20037;-91
2023/08/29 00:38:04;;;;;;;10.13;4.20;;;;;;;15.20;100.00;100294.59;5018720;28;20414;-91
2023/08/29 00:40:30;;;;;;;14.48;4.72;;;;;;;15.17;100.00;100286.13;5026172;28;20112;-91
2023/08/29 00:43:00;;;;;;;10.45;4.20;;;;;;;15.10;100.00;100288.66;4994594;28;20041;-90
2023/08/29 00:45:29;;;;;;;9.82;4.00;;;;;;;14.99;100.00;100280.09;5009200;28;20071;-90
2023/08/29 00:47:56;;;;;;;13.18;4.07;;;;;;;14.93;100.00;100279.97;4999994;28;20088;-91
2023/08/29 00:50:22;;;;;;;13.38;4.93;;;;;;;14.90;100.00;100275.00;4998435;28;20643;-90
2023/08/29 00:52:49;;;;;;;14.50;4.15;;;;;;;14.87;100.00;100278.84;4993823;28;20766;-91
2023/08/29 00:55:15;;;;;;;7.47;3.50;;;;;;;14.85;100.00;100273.72;4998582;28;20034;-91
2023/08/29 00:57:41;;;;;;;14.48;4.32;;;;;;;14.84;100.00;100269.38;5051124;28;20041;-91
2023/08/29 01:00:08;;;;;;;9.63;4.22;;;;;;;14.85;100.00;100275.53;4997277;28;20521;-91
2023/08/29 01:02:33;;;;;;;10.35;3.92;;;;;;;14.81;100.00;100269.72;5048114;28;20033;-91
2023/08/29 01:04:59;;;;;;;13.60;4.47;;;;;;;14.79;100.00;100276.22;5035126;28;20037;-91
2023/08/29 01:07:25;;;;;;;11.27;4.43;;;;;;;14.77;100.00;100273.72;5018394;28;20085;-90
2023/08/29 01:09:51;;;;;;;10.18;4.10;;;;;;;14.79;100.00;100276.22;5025365;28;20085;-91
2023/08/29 01:12:18;;;;;;;13.48;4.72;;;;;;;14.78;100.00;100275.38;5050652;28;20131;-90
2023/08/29 01:14:58;;;;;;;9.13;4.35;;;;;;;14.79;100.00;100273.56;5035269;28;20115;-91
2023/08/29 01:17:41;;;;;;;13.02;4.13;;;;;;;14.78;100.00;100275.38;5034388;28;20501;-91
2023/08/29 01:20:08;;;;;;;13.75;4.43;;;;;;;14.75;100.00;100271.25;5016569;28;20389;-91
2023/08/29 01:22:43;;;;;;;10.02;3.92;;;;;;;14.76;100.00;100277.41;5020010;28;20259;-90
2023/08/29 01:25:23;;;;;;;13.40;4.05;;;;;;;14.74;100.00;100279.41;5051884;28;20065;-91
2023/08/29 01:27:49;;;;;;;10.00;4.20;;;;;;;14.70;100.00;100275.44;5008859;28;20037;-91
2023/08/29 01:30:15;;;;;;;11.88;3.70;;;;;;;14.67;100.00;100276.63;5050093;28;20040;-92
2023/08/29 01:32:42;;;;;;;12.73;4.13;;;;;;;14.66;100.00;100285.59;5035853;28;20397;-91
2023/08/29 01:35:13;;;;;;;8.25;3.80;;;;;;;14.63;100.00;100273.50;5033460;28;20032;-92
2023/08/29 01:37:38;;;;;;;14.00;4.35;;;;;;;14.61;100.00;100275.50;5034051;28;20143;-91
2023/08/29 01:40:06;;;;;;;11.32;3.25;;;;;;;14.63;100.00;100270.00;5018637;28;20552;-91
2023/08/29 01:42:32;;;;;;;10.27;3.30;;;;;;;14.62;100.00;100268.34;5018681;28;20421;-90
2023/08/29 01:44:58;;;;;;;7.85;2.95;;;;;;;14.63;100.00;100262.84;5041930;28;21054;-90
2023/08/29 01:47:24;;;;;;;10.63;3.65;;;;;;;14.61;100.00;100267.50;5048748;28;20537;-89
2023/08/29 01:49:51;;;;;;;7.32;3.10;;;;;;;14.58;100.00;100275.00;5031735;28;20043;-90
2023/08/29 01:52:17;;;;;;;8.07;3.28;;;;;;;14.52;100.00;100257.94;5061628;28;20028;-89
2023/08/29 01:54:45;;;;;;;5.97;2.47;;;;;;;14.51;100.00;100265.06;5019666;28;20040;-89
2023/08/29 01:57:13;;;;;;;7.45;2.92;;;;;;;14.50;100.00;100259.94;4991932;28;20523;-90
2023/08/29 01:59:41;;;;;;;5.88;2.75;;;;;;;14.42;100.00;100258.16;5017362;28;20037;-87
2023/08/29 02:02:07;;;;;;;7.38;3.15;;;;;;;14.33;100.00;100252.06;5047074;28;20040;-90
2023/08/29 02:04:35;;;;;;;3.45;2.90;;;;;;;14.31;100.00;100256.72;5042581;28;20504;-90
2023/08/29 02:07:01;;;;;;;5.95;2.88;;;;;;;14.30;100.00;100256.88;5019846;28;20112;-90
2023/08/29 02:09:26;;;;;;;7.88;3.53;;;;;;;14.27;100.00;100250.06;5029870;28;20060;-89
2023/08/29 02:11:52;;;;;;;17.20;7.70;;;;;;;14.21;100.00;100251.59;5042973;28;20037;-89
2023/08/29 02:14:18;;;;;;;19.42;7.57;;;;;;;14.13;100.00;100249.81;5015857;28;20048;-89
2023/08/29 02:16:44;;;;;;;8.85;2.83;;;;;;;14.10;100.00;100254.63;5061157;28;20397;-89
2023/08/29 02:19:13;;;;;;;6.53;2.40;;;;;;;13.98;100.00;100256.84;5047855;28;20393;-88
2023/08/29 02:21:42;;;;;;;4.57;2.80;;;;;;;13.85;100.00;100246.75;5044981;28;20129;-89
2023/08/29 02:24:08;;;;;;;5.57;2.70;;;;;;;13.78;100.00;100257.22;5032748;28;20128;-89
2023/08/29 02:26:34;;;;;;;6.00;3.42;;;;;;;13.73;100.00;100249.75;5030969;28;20099;-89
2023/08/29 02:28:59;;;;;;;4.13;2.45;;;;;;;13.67;100.00;100241.63;5022079;28;20029;-89
2023/08/29 02:31:25;;;;;;;3.10;2.30;;;;;;;13.60;100.00;100238.84;5046965;28;20029;-89
2023/08/29 02:33:52;;;;;;;6.90;3.05;;;;;;;13.58;100.00;100248.81;5017852;28;20064;-88
2023/08/29 02:36:18;;;;;;;7.00;2.65;;;;;;;13.53;100.00;100236.03;5051420;28;20032;-88
2023/08/29 02:38:47;;;;;;;8.35;2.45;;;;;;;13.57;100.00;100242.66;5066139;28;20033;-88
2023/08/29 02:41:12;;;;;;;6.00;2.58;;;;;;;13.57;100.00;100237.34;5049113;28;20860;-88
2023/08/29 02:43:38;;;;;;;4.60;2.30;;;;;;;13.57;100.00;100241.84;5048318;28;20037;-88
2023/08/29 02:46:04;;;;;;;4.18;2.30;;;;;;;13.55;100.00;100242.03;5020162;28;20040;-88
2023/08/29 02:48:32;;;;;;;5.10;2.35;;;;;;;13.54;100.00;100240.34;5051163;28;20111;-87
2023/08/29 02:50:57;;;;;;;4.90;2.38;;;;;;;13.56;100.00;100242.84;5018508;28;20037;-88
2023/08/29 02:53:23;;;;;;;3.83;2.25;;;;;;;13.57;100.00;100239.19;5030993;28;20045;-88
2023/08/29 02:55:51;;;;;;;6.22;2.60;;;;;;;13.60;100.00;100242.31;5050226;28;20098;-88
2023/08/29 02:58:16;;;;;;;6.85;2.28;;;;;;;13.60;100.00;100242.31;5050464;28;20033;-88
2023/08/29 03:00:42;;;;;;;4.90;2.47;;;;;;;13.61;100.00;100240.50;5018668;28;20040;-88
2023/08/29 03:03:08;;;;;;;3.53;2.70;;;;;;;13.61;100.00;100245.81;4991119;28;20026;-88
2023/08/29 03:05:34;;;;;;;5.78;2.25;;;;;;;13.60;100.00;100241.50;5033988;28;20040;-89
2023/08/29 03:08:02;;;;;;;5.88;2.80;;;;;;;13.61;100.00;100243.16;5038440;28;20072;-89
2023/08/29 03:10:28;;;;;;;4.18;2.53;;;;;;;13.62;100.00;100245.66;5006088;28;20052;-88
2023/08/29 03:12:54;;;;;;;4.80;2.63;;;;;;;13.64;100.00;100248.13;5050467;28;20033;-88
2023/08/29 03:15:21;;;;;;;7.80;2.90;;;;;;;13.66;100.00;100250.63;5031640;28;20044;-87
2023/08/29 03:17:47;;;;;;;5.43;3.03;;;;;;;13.69;100.00;100248.47;5034264;28;20036;-87
2023/08/29 03:20:13;;;;;;;4.15;2.35;;;;;;;13.71;100.00;100242.97;4972662;28;20036;-86
2023/08/29 03:22:39;;;;;;;6.38;2.55;;;;;;;13.74;100.00;100245.28;5031820;28;20049;-87
2023/08/29 03:25:05;;;;;;;7.93;3.50;;;;;;;13.80;100.00;100239.28;5042709;28;20374;-88
2023/08/29 03:27:31;;;;;;;9.95;4.10;;;;;;;13.88;100.00;100233.13;5033963;28;20512;-88
2023/08/29 03:29:58;;;;;;;11.10;5.60;;;;;;;13.91;100.00;100219.50;5032546;28;20029;-87
2023/08/29 03:32:24;;;;;;;11.75;5.88;;;;;;;13.99;100.00;100229.25;5028513;28;20044;-87
2023/08/29 03:34:54;;;;;;;9.40;4.10;;;;;;;14.05;100.00;100212.63;5029411;28;20127;-85
2023/08/29 03:37:20;;;;;;;6.55;3.17;;;;;;;14.07;100.00;100217.78;5029215;28;20132;-88
2023/08/29 03:39:46;;;;;;;5.97;3.42;;;;;;;14.10;100.00;100204.13;5034832;28;20037;-88
2023/08/29 03:42:11;;;;;;;3.75;2.60;;;;;;;14.13;100.00;100196.66;5045616;28;20432;-88
2023/08/29 03:44:37;;;;;;;7.18;3.05;;;;;;;14.19;100.00;100192.44;5020160;28;20033;-88
2023/08/29 03:47:03;;;;;;;5.93;2.78;;;;;;;14.23;100.00;100199.09;5035267;28;20024;-88
2023/08/29 03:49:29;;;;;;;6.45;2.42;;;;;;;14.24;100.00;100194.59;5030984;28;20075;-89
2023/08/29 03:51:56;;;;;;;6.25;2.28;;;;;;;14.26;100.00;100187.28;5041378;28;20064;-87
2023/08/29 03:54:22;;;;;;;4.50;2.60;;;;;;;14.23;100.00;100179.66;5001561;28;20087;-88
2023/08/29 03:56:48;;;;;;;6.25;2.55;;;;;;;14.21;100.00;100179.81;5020547;28;20516;-88
2023/08/29 03:59:15;;;;;;;6.13;2.67;;;;;;;14.21;100.00;100182.47;5013238;28;20056;-87
2023/08/29 04:01:40;;;;;;;5.93;3.03;;;;;;;14.17;100.00;100172.38;5048242;28;20048;-87
2023/08/29 04:04:06;;;;;;;5.57;2.53;;;;;;;14.13;100.00;100169.22;5032549;28;20037;-87
2023/08/29 04:06:34;;;;;;;6.10;2.78;;;;;;;14.10;100.00;100167.75;5010107;28;20049;-88
2023/08/29 04:09:03;;;;;;;6.03;2.67;;;;;;;14.10;100.00;100174.91;5015310;28;20048;-88
2023/08/29 04:11:29;;;;;;;7.30;2.97;;;;;;;14.11;100.00;100168.59;5012229;28;20456;-88
2023/08/29 04:13:56;;;;;;;6.90;2.88;;;;;;;14.10;100.00;100166.94;5047758;28;20060;-88
2023/08/29 04:16:22;;;;;;;11.57;3.17;;;;;;;14.09;100.00;100174.09;5032395;28;20048;-88
2023/08/29 04:18:48;;;;;;;8.52;2.72;;;;;;;14.10;100.00;100173.06;5008696;28;20129;-87
2023/08/29 04:21:14;;;;;;;10.48;3.15;;;;;;;14.12;100.00;100178.22;5059185;28;20582;-88
2023/08/29 04:23:39;;;;;;;7.18;3.05;;;;;;;14.09;100.00;100168.78;5047876;28;20027;-88
2023/08/29 04:26:05;;;;;;;6.70;3.00;;;;;;;14.11;100.00;100180.03;5049237;28;20025;-89
2023/08/29 04:28:31;;;;;;;5.68;3.00;;;;;;;14.11;100.00;100180.03;5036253;28;20029;-88
2023/08/29 04:31:09;;;;;;;4.88;2.72;;;;;;;14.15;100.00;100172.56;5017845;28;20098;-89
2023/08/29 04:33:35;;;;;;;5.03;2.90;;;;;;;14.11;100.00;100185.34;5065677;28;20043;-89
2023/08/29 04:36:01;;;;;;;6.55;2.97;;;;;;;14.10;100.00;100180.22;5048989;28;20037;-89
2023/08/29 04:38:28;;;;;;;6.00;2.60;;;;;;;14.11;100.00;100180.03;5033148;28;20033;-89
2023/08/29 04:40:54;;;;;;;9.27;3.63;;;;;;;14.13;100.00;100178.03;5035168;28;20036;-89
2023/08/29 04:43:20;;;;;;;4.70;2.88;;;;;;;14.14;100.00;100181.53;5015241;28;20045;-89
2023/08/29 04:45:46;;;;;;;5.10;2.70;;;;;;;14.13;100.00;100182.53;5032662;28;20600;-89
2023/08/29 04:48:13;;;;;;;5.13;3.20;;;;;;;14.12;100.00;100191.50;5032186;28;20517;-88
2023/08/29 04:50:39;;;;;;;5.53;2.80;;;;;;;14.14;100.00;100186.84;5031389;28;20036;-89
2023/08/29 04:53:05;;;;;;;6.50;2.80;;;;;;;14.15;100.00;100191.16;5032326;28;20037;-89
2023/08/29 04:55:32;;;;;;;9.18;3.03;;;;;;;14.17;100.00;100197.13;5033885;28;20131;-90
2023/08/29 04:57:58;;;;;;;5.57;2.63;;;;;;;14.20;100.00;100193.28;5050207;28;20120;-89
2023/08/29 05:00:24;;;;;;;8.68;3.30;;;;;;;14.19;100.00;100191.66;5017622;28;20040;-90
2023/08/29 05:02:50;;;;;;;8.40;3.40;;;;;;;14.23;100.00;100199.09;5033681;28;20037;-89
2023/08/29 05:05:16;;;;;;;5.45;2.97;;;;;;;14.22;100.00;100208.06;5039222;28;20083;-89
2023/08/29 05:07:43;;;;;;;6.05;3.25;;;;;;;14.17;100.00;100196.31;5035821;28;20039;-89
2023/08/29 05:10:09;;;;;;;6.13;2.97;;;;;;;14.15;100.00;100196.47;5049260;28;20056;-89
2023/08/29 05:12:35;;;;;;;4.82;2.63;;;;;;;14.12;100.00;100196.81;5047709;28;20037;-89
2023/08/29 05:15:00;;;;;;;4.18;2.88;;;;;;;14.08;100.00;100190.22;5047104;28;20043;-90
2023/08/29 05:17:26;;;;;;;5.38;3.47;;;;;;;14.04;100.00;100194.19;5030800;28;20488;-90
2023/08/29 05:19:54;;;;;;;35.78;3.58;;;;;;;13.95;100.00;100202.19;5032776;28;20048;-89
2023/08/29 05:22:20;;;;;;;88.25;3.88;;;;;;;13.87;100.00;100204.91;5010982;28;20032;-88
2023/08/29 05:24:46;;;;;;;13.90;3.30;;;;;;;13.76;100.00;100195.50;5058619;28;20056;-89
2023/08/29 05:27:12;;;;;;;24.85;3.75;;;;;;;13.80;100.00;100206.59;5063572;28;20429;-89
2023/08/29 05:29:38;;;;;;;65.00;3.72;;;;;;;13.80;100.00;100203.94;5049415;28;20393;-90
2023/08/29 05:32:04;;;;;;;5.68;2.67;;;;;;;13.80;100.00;100203.94;5017715;28;20028;-89
2023/08/29 05:34:30;;;;;;;27.48;2.78;;;;;;;13.80;100.00;100201.28;5031166;28;20545;-89
2023/08/29 05:36:56;;;;;;;22.23;3.03;;;;;;;13.80;100.00;100207.41;5044678;28;20112;-88
2023/08/29 05:39:23;;;;;;;82.43;3.38;;;;;;;13.72;100.00;100202.13;5032933;28;20041;-89
2023/08/29 05:41:50;;;;;;;40.60;2.70;;;;;;;13.67;100.00;100202.63;5047388;28;20036;-88
2023/08/29 05:44:16;;;;;;;81.95;3.08;;;;;;;13.55;100.00;100215.47;5035361;28;20643;-89
2023/08/29 05:46:41;;;;;;;23.75;2.42;;;;;;;13.50;100.00;100215.97;5051728;28;20086;-89
2023/08/29 05:49:07;;;;;;;63.75;2.60;;;;;;;13.50;100.00;100215.97;5048885;28;20408;-88
2023/08/29 05:51:33;;;;;;;39.00;2.60;;;;;;;13.48;100.00;100217.09;5065101;28;20397;-89
2023/08/29 05:54:00;;;;;;;2.83;2.05;;;;;;;13.51;100.00;100222.94;5029353;28;20037;-89
2023/08/29 05:56:25;;;;;;;4.72;2.08;;;;;;;13.51;100.00;100209.66;5048738;28;20658;-89
2023/08/29 05:58:51;;;;;;;3.30;2.03;;;;;;;13.54;100.00;100208.47;5028289;28;20033;-88
2023/08/29 06:01:17;;;;;;;3.95;1.95;;;;;;;13.56;100.00;100208.31;5030920;28;20040;-89
2023/08/29 06:03:43;;;;;;;3.05;2.10;;;;;;;13.56;100.00;100214.47;5030569;28;20033;-89
2023/08/29 06:06:09;;;;;;;8.15;2.28;;;;;;;13.59;100.00;100210.63;5035116;28;20096;-89
2023/08/29 06:08:35;;;;;;;4.57;2.17;;;;;;;13.62;100.00;100215.59;5019424;28;20048;-89
2023/08/29 06:11:03;;;;;;;4.00;2.47;;;;;;;13.63;100.00;100215.44;5059486;28;20028;-89
2023/08/29 06:13:29;;;;;;;5.30;2.28;;;;;;;13.66;100.00;100210.78;5058910;28;20056;-87
2023/08/29 06:15:55;;;;;;;2.70;2.03;;;;;;;13.70;100.00;100212.94;5038957;28;20056;-89
2023/08/29 06:18:21;;;;;;;4.05;2.38;;;;;;;13.77;100.00;100213.91;5036894;28;20029;-88
2023/08/29 06:20:47;;;;;;;3.35;2.40;;;;;;;13.82;100.00;100218.72;5034054;28;20044;-89
2023/08/29 06:23:13;;;;;;;5.55;2.30;;;;;;;13.80;100.00;100210.06;5020455;28;20037;-89
2023/08/29 06:25:39;;;;;;;3.90;2.22;;;;;;;13.85;100.00;100217.53;5033575;28;20029;-88
2023/08/29 06:28:05;;;;;;;4.22;2.20;;;;;;;13.88;100.00;100212.72;5037072;28;20029;-88
2023/08/29 06:30:31;;;;;;;3.63;2.35;;;;;;;13.91;100.00;100210.69;5036838;28;20439;-87
2023/08/29 06:32:57;;;;;;;3.65;2.60;;;;;;;13.95;100.00;100207.50;5041195;28;20055;-88
2023/08/29 06:35:23;;;;;;;3.83;1.80;;;;;;;13.94;100.00;100202.38;5052095;28;20452;-89
2023/08/29 06:37:49;;;;;;;2.38;1.60;;;;;;;14.00;100.00;100202.50;5052869;28;20040;-88
2023/08/29 06:40:14;;;;;;;3.10;1.85;;;;;;;14.02;100.00;100210.31;5036593;28;20033;-89
2023/08/29 06:42:40;;;;;;;3.03;2.00;;;;;;;14.06;100.00;100200.19;5042334;28;20036;-89
2023/08/29 06:45:07;;;;;;;5.13;2.05;;;;;;;14.09;100.00;100210.47;5036093;28;20029;-88
2023/08/29 06:47:32;;;;;;;3.28;2.30;;;;;;;14.10;100.00;100202.31;5020427;28;20029;-89
2023/08/29 06:49:59;;;;;;;4.32;2.00;;;;;;;14.11;100.00;100203.16;5050305;28;20477;-89
2023/08/29 06:52:26;;;;;;;2.97;2.00;;;;;;;14.14;100.00;100195.63;5052856;28;20460;-88
2023/08/29 06:54:52;;;;;;;3.20;2.47;;;;;;;14.11;100.00;100195.19;5037289;28;20064;-88
2023/08/29 06:57:18;;;;;;;2.97;2.08;;;;;;;14.13;100.00;100201.97;5034937;28;20060;-88
2023/08/29 06:59:43;;;;;;;3.40;2.13;;;;;;;14.16;100.00;100199.97;5018257;28;20033;-87
2023/08/29 07:02:09;;;;;;;3.55;1.90;;;;;;;14.21;100.00;100205.56;5051005;28;20033;-88
2023/08/29 07:04:35;;;;;;;3.60;1.73;;;;;;;14.24;100.00;100205.22;5032157;28;20040;-86
2023/08/29 07:07:01;;;;;;;3.15;2.20;;;;;;;14.23;100.00;100206.22;5027093;28;20025;-88
2023/08/29 07:09:27;;;;;;;3.92;2.05;;;;;;;14.24;100.00;100211.38;5050209;28;20079;-88
2023/08/29 07:11:53;;;;;;;3.83;2.20;;;;;;;14.25;100.00;100210.38;5032358;28;20033;-88
2023/08/29 07:14:19;;;;;;;2.28;1.92;;;;;;;14.21;100.00;100211.72;5034627;28;20029;-87
2023/08/29 07:16:45;;;;;;;4.65;1.92;;;;;;;14.25;100.00;100212.22;5033818;28;20401;-88
2023/08/29 07:19:12;;;;;;;4.03;1.98;;;;;;;14.23;100.00;100212.38;5050232;28;20040;-88
2023/08/29 07:21:38;;;;;;;1.75;1.40;;;;;;;14.21;100.00;100216.19;5033111;28;20104;-89
2023/08/29 07:24:04;;;;;;;4.60;1.88;;;;;;;14.19;100.00;100219.03;5011027;28;20037;-87
2023/08/29 07:26:30;;;;;;;2.78;1.60;;;;;;;14.24;100.00;100215.84;5018011;28;20504;-87
2023/08/29 07:28:59;;;;;;;4.32;1.73;;;;;;;14.25;100.00;100210.38;5037889;28;20120;-87
2023/08/29 07:31:25;;;;;;;1.98;1.17;;;;;;;14.22;100.00;100210.72;5035572;28;20523;-86
2023/08/29 07:33:51;;;;;;;2.85;1.00;;;;;;;14.25;100.00;100210.38;5046828;28;20033;-87
2023/08/29 07:36:17;;;;;;;1.25;0.90;;;;;;;14.20;100.00;100215.41;5030502;28;20044;-86
2023/08/29 07:38:43;;;;;;;1.17;0.90;;;;;;;14.14;100.00;100211.59;5014553;28;20417;-89
2023/08/29 07:41:08;;;;;;;1.60;0.88;;;;;;;14.11;100.00;100229.72;5013603;28;20490;-88
2023/08/29 07:43:34;;;;;;;0.68;0.60;;;;;;;13.99;100.00;100226.59;5050023;28;20041;-86
2023/08/29 07:46:00;;;;;;;1.33;0.60;;;;;;;13.89;100.00;100229.47;5044137;28;20379;-85
2023/08/29 07:48:26;;;;;;;2.85;0.80;;;;;;;13.76;100.00;100227.38;4999287;28;20041;-86
2023/08/29 07:50:52;;;;;;;1.00;0.57;;;;;;;13.68;100.00;100235.34;5016388;28;20070;-86
2023/08/29 07:53:17;;;;;;;2.42;0.60;;;;;;;13.62;100.00;100227.06;5017919;28;20040;-86
2023/08/29 07:55:45;;;;;;;1.67;0.43;;;;;;;13.57;100.00;100224.06;5046127;28;20075;-86
2023/08/29 07:58:10;;;;;;;1.75;0.60;;;;;;;13.57;100.00;100237.34;5048579;28;20469;-89
2023/08/29 08:00:36;;;;;;;1.50;0.40;;;;;;;13.58;100.00;100232.88;5050562;28;20041;-88
2023/08/29 08:03:03;;;;;;;1.27;0.47;;;;;;;13.60;100.00;100234.34;5047469;28;20029;-88
2023/08/29 08:05:29;;;;;;;2.50;0.50;;;;;;;13.63;100.00;100234.00;5031268;28;20464;-88
2023/08/29 08:07:56;;;;;;;1.85;0.60;;;;;;;13.62;100.00;100224.41;5026683;28;20102;-87
2023/08/29 08:10:23;;;;;;;0.85;0.50;;;;;;;13.71;100.00;100227.03;5024893;28;20056;-88
2023/08/29 08:12:49;;;;;;;1.35;0.40;;;;;;;13.76;100.00;100238.00;5064107;28;20591;-88
2023/08/29 08:15:20;;;;;;;1.35;0.50;;;;;;;13.84;100.00;100231.81;5045327;28;20044;-87
2023/08/29 08:17:46;;;;;;;3.20;0.60;;;;;;;13.85;100.00;100236.97;5011627;28;20131;-89
2023/08/29 08:20:12;;;;;;;3.60;0.52;;;;;;;13.85;100.00;100228.16;5031934;28;20032;-88
2023/08/29 08:22:39;;;;;;;1.85;0.73;;;;;;;13.91;100.00;100230.13;5028847;28;20037;-89
2023/08/29 08:25:05;;;;;;;3.83;0.70;;;;;;;13.95;100.00;100235.94;4996397;28;20517;-88
2023/08/29 08:27:31;;;;;;;3.40;0.90;;;;;;;13.97;100.00;100228.59;5031839;28;20132;-87
2023/08/29 08:29:57;;;;;;;1.42;0.52;;;;;;;14.05;100.00;100225.09;5029922;28;20175;-88
2023/08/29 08:32:23;;;;;;;3.53;1.02;;;;;;;14.10;100.00;100228.88;5048893;28;20033;-89
2023/08/29 08:34:49;;;;;;;3.72;1.00;;;;;;;14.11;100.00;100225.22;5014184;28;20114;-88
2023/08/29 08:37:15;;;;;;;8.48;0.90;;;;;;;14.15;100.00;100233.69;5063215;28;20036;-87
2023/08/29 08:39:41;;;;;;;4.25;0.90;;;;;;;14.16;100.00;100232.66;5047109;28;20501;-87
2023/08/29 08:42:08;;;;;;;4.90;1.08;;;;;;;14.26;100.00;100232.47;5063901;28;20028;-87
2023/08/29 08:44:34;;;;;;;7.00;1.10;;;;;;;14.32;100.00;100228.28;5028775;28;20055;-88
2023/08/29 08:47:00;;;;;;;5.22;1.10;;;;;;;14.28;100.00;100227.81;5062592;28;20036;-86
2023/08/29 08:49:26;;;;;;;5.13;1.40;;;;;;;14.31;100.00;100231.94;5018061;28;20067;-88
2023/08/29 08:51:54;;;;;;;3.25;1.20;;;;;;;14.36;100.00;100213.66;5046932;28;20040;-87
2023/08/29 08:54:19;;;;;;;4.68;1.50;;;;;;;14.34;100.00;100227.13;5028661;28;20068;-84
2023/08/29 08:56:47;;;;;;;11.20;1.55;;;;;;;14.41;100.00;100229.06;5028597;28;20056;-83
2023/08/29 08:59:13;;;;;;;7.53;2.00;;;;;;;14.38;100.00;100222.28;5048761;28;20574;-86
2023/08/29 09:01:39;;;;;;;8.85;1.55;;;;;;;14.39;100.00;100214.13;5030331;28;20032;-87
2023/08/29 09:04:05;;;;;;;7.40;1.65;;;;;;;14.41;100.00;100219.28;5047861;28;20033;-86
2023/08/29 09:06:31;;;;;;;7.22;1.48;;;;;;;14.47;100.00;100228.38;5012543;28;20418;-88
2023/08/29 09:09:13;;;;;;;6.13;1.50;;;;;;;14.46;100.00;100221.41;5036004;28;20041;-87
2023/08/29 09:11:41;;;;;;;6.55;1.40;;;;;;;14.53;100.00;100222.34;5027209;28;20063;-87
2023/08/29 09:14:07;;;;;;;6.03;1.35;;;;;;;14.54;100.00;100228.50;5047091;28;20028;-87
2023/08/29 09:16:35;;;;;;;8.75;1.70;;;;;;;14.53;100.00;100219.69;5045149;28;20037;-88
2023/08/29 09:19:01;;;;;;;4.15;1.13;;;;;;;14.48;100.00;100228.19;5047619;28;20032;-87
2023/08/29 09:21:27;;;;;;;6.95;1.30;;;;;;;14.50;100.00;100220.03;5000324;28;20128;-88
2023/08/29 09:23:52;;;;;;;4.75;1.20;;;;;;;14.57;100.00;100233.47;5048528;28;20029;-88
2023/08/29 09:26:18;;;;;;;6.97;1.20;;;;;;;14.60;100.00;100228.63;5036134;28;20477;-88
2023/08/29 09:28:44;;;;;;;9.07;1.75;;;;;;;14.54;100.00;100224.00;5060489;28;20041;-89
2023/08/29 09:31:14;;;;;;;7.97;1.30;;;;;;;14.47;100.00;100233.69;5034974;28;20072;-88
2023/08/29 09:33:40;;;;;;;10.80;1.92;;;;;;;14.53;100.00;100235.63;5045367;28;20094;-90
2023/08/29 09:36:06;;;;;;;7.05;1.67;;;;;;;14.52;100.00;100240.13;5021859;28;20112;-90
2023/08/29 09:38:35;;;;;;;9.68;1.45;;;;;;;14.59;100.00;100240.25;5051736;28;20037;-89
2023/08/29 09:41:01;;;;;;;7.82;1.23;;;;;;;14.62;100.00;100245.22;5036307;28;20029;-90
2023/08/29 09:43:28;;;;;;;6.65;1.67;;;;;;;14.64;100.00;100242.38;5015696;28;20397;-90
2023/08/29 09:45:56;;;;;;;8.55;1.50;;;;;;;14.71;100.00;100251.34;5034382;28;20040;-89
2023/08/29 09:48:22;;;;;;;10.80;1.60;;;;;;;14.76;100.00;100245.47;5062317;28;20029;-88
2023/08/29 09:50:49;;;;;;;9.30;1.50;;;;;;;14.87;100.00;100249.59;5035372;28;20037;-90
2023/08/29 09:53:17;;;;;;;6.72;1.52;;;;;;;15.02;100.00;100238.97;5032491;28;20033;-89
2023/08/29 09:56:09;;;;;;;9.07;1.60;;;;;;;15.11;100.00;100245.09;5036739;28;20226;-91
2023/08/29 09:58:38;;;;;;;9.73;1.50;;;;;;;15.15;100.00;100240.19;5025864;28;20041;-88
2023/08/29 10:01:05;;;;;;;6.80;1.67;;;;;;;15.18;100.00;100251.34;5038258;28;20105;-90
2023/08/29 10:03:31;;;;;;;6.25;1.50;;;;;;;15.30;100.00;100246.41;5064238;28;20043;-89
2023/08/29 10:06:01;;;;;;;7.93;1.58;;;;;;;15.26;100.00;100237.13;5036555;28;20115;-89
2023/08/29 10:08:33;;;;;;;6.63;1.55;;;;;;;15.23;100.00;100234.81;5042298;28;20108;-90
2023/08/29 10:11:00;;;;;;;6.53;1.60;;;;;;;15.18;100.00;100235.34;5035239;28;20045;-90
2023/08/29 10:13:27;;;;;;;10.80;1.73;;;;;;;15.25;100.00;100241.63;5045533;28;20037;-89
2023/08/29 10:15:54;;;;;;;7.18;1.70;;;;;;;15.39;100.00;100236.50;5064675;28;20080;-90
2023/08/29 10:18:21;;;;;;;10.00;2.38;;;;;;;15.52;100.00;100238.53;5064066;28;20075;-90
2023/08/29 10:20:48;;;;;;;6.88;1.60;;;;;;;15.53;100.00;100245.50;5011818;28;20039;-90
2023/08/29 10:23:16;;;;;;;9.10;1.80;;;;;;;15.55;100.00;100238.19;5067435;28;20037;-89
2023/08/29 10:25:43;;;;;;;6.60;1.67;;;;;;;15.51;100.00;100239.56;4999662;28;20032;-90
2023/08/29 10:28:11;;;;;;;14.18;2.00;;;;;;;15.40;100.00;100238.16;5029665;28;20036;-91
2023/08/29 10:30:40;;;;;;;12.85;2.22;;;;;;;15.27;100.00;100227.31;5048387;28;20144;-89
2023/08/29 10:33:07;;;;;;;7.80;1.52;;;;;;;15.13;100.00;100232.41;5073235;28;20017;-91
2023/08/29 10:35:33;;;;;;;6.28;2.05;;;;;;;15.13;100.00;100233.25;5021094;28;20040;-88
2023/08/29 10:38:08;;;;;;;12.00;1.92;;;;;;;15.21;100.00;100218.22;5064528;28;20381;-90
2023/08/29 10:40:37;;;;;;;11.13;2.10;;;;;;;15.31;100.00;100210.78;5032895;28;20071;-89
2023/08/29 10:43:14;;;;;;;7.57;1.80;;;;;;;15.45;100.00;100203.81;5047212;28;20174;-90
2023/08/29 10:45:54;;;;;;;12.38;2.33;;;;;;;15.71;100.00;100204.38;5032364;28;20039;-90
2023/08/29 10:48:22;;;;;;;11.02;2.20;;;;;;;15.82;100.00;100205.75;5051143;28;20080;-88
2023/08/29 10:51:08;;;;;;;12.48;2.10;;;;;;;15.84;100.00;100211.72;5048884;28;20079;-88
2023/08/29 10:53:48;;;;;;;10.05;1.70;;;;;;;15.73;100.00;100213.00;5035209;28;20067;-89
2023/08/29 10:56:17;;;;;;;10.57;2.10;;;;;;;15.63;100.00;100214.13;5027881;28;20047;-91
2023/08/29 10:58:45;;;;;;;13.48;2.80;;;;;;;15.56;100.00;100221.19;5061842;28;20584;-89
2023/08/29 11:01:30;;;;;;;10.80;1.92;;;;;;;15.63;100.00;100219.44;5036947;28;20040;-91
2023/08/29 11:04:00;;;;;;;11.98;2.28;;;;;;;15.80;100.00;100213.91;5020069;28;20029;-90
2023/08/29 11:06:58;;;;;;;13.43;2.40;;;;;;;15.98;100.00;100210.06;5035972;28;20059;-88
2023/08/29 11:09:25;;;;;;;12.38;1.88;;;;;;;16.10;100.00;100197.09;5028807;28;20119;-88
2023/08/29 11:12:20;;;;;;;10.38;2.28;;;;;;;16.35;100.00;100200.25;5051802;28;20783;-90
2023/08/29 11:14:53;;;;;;;10.93;2.30;;;;;;;16.45;100.00;100197.25;5034542;28;20072;-91